RÉSULTATS    La Virée des Galopins - Édition du 24/07/2016


Vous pouvez changer la distance ici.

Vous pouvez changer la distance ici.

Classement PDF Général Classement PDF Alphabétique /results/<span class='glyphicon glyphicon-picture'></span> Classement Temps Réel - Temps Puce

570 participants - 154 Femmes - 416 Hommes
94 licenciés (16%) - 476 non-licenciés (84%)

Temps moyen : 01:26:16




Pos. Temps Nom - Prénom Club Dossard Catégorie km/h
226 01:21:48 SELLIER Jean SPORT 2000 2623 V2M (28 / 86) 11.0
227 01:21:54 MOURIGUE Denis CLUB IBM FRANCE 2582 V3M (15 / 32) 10.9
228 01:21:58 DUPUY Laurent 2970 V2M (29 / 86) 10.9
229 01:22:00 GILBERT Joachim 2656 SEM (78 / 129) 10.9
230 01:22:02 CHAMPY Christian CHATEAUX CISSAC 2579 V1M (76 / 144) 10.9
231 01:22:14 SERTORI Cyril 2802 V1M (77 / 144) 10.9
232 01:22:20 BILLARD Christophe 2953 V2M (30 / 86) 10.9
233 01:22:20 CRUZ Damien LE PALACE 2952 SEM (79 / 129) 10.9
234 01:22:28 HEIMES Tobiaj DEPORTURNNERS BRACHT 2946 V1M (78 / 144) 10.9
235 01:22:37 MANGOLD Alfred SV MUNSTER 2446 V3M (16 / 32) 10.8
236 01:22:40 LE QUEREC Romain PATOU TEAM 2553 V1M (79 / 144) 10.8
237 01:22:44 VIDEAU Patrick 2801 V2M (31 / 86) 10.8
238 01:22:53 KABALA Pascal RESTAURANT LE NEPTUNE 2665 V1M (80 / 144) 10.8
239 01:22:56 DIAS David 2521 V1M (81 / 144) 10.8
240 01:22:58 BLIARD Claude ASI ILLAC 2476 V2M (32 / 86) 10.8
241 01:23:04 GIRARD Jean marie ASEAT 2534 V1M (82 / 144) 10.8
242 01:23:06 LEROYER Pascal 2732 V2M (33 / 86) 10.8
243 01:23:07 DEWULF Benjamin 2938 SEM (80 / 129) 10.8
244 01:23:07 AMEZIANE Herve 2454 V2M (34 / 86) 10.8
245 01:23:21 MICHAUX Christian 2941 V4M (1 / 4) 10.7
246 01:23:22 RAYMOND Bertrand 2472 SEM (81 / 129) 10.7
247 01:23:35 BAHOUGNE Laurent 2699 V1M (83 / 144) 10.7
248 01:23:40 AUGUSTE Andriani 2436 V1M (84 / 144) 10.7
249 01:23:40 NICOLLE Patrice US CENON-RIVE-DROITE 2775 V2M (35 / 86) 10.7
250 01:23:48 VOLLET Jean marc 2734 V2M (36 / 86) 10.7